Terminal Aerodrome Forecast
Issued by NWS

Home | Current Version | Previous Version | Text Only | Print | Product List | Glossary On
Versions: 1 2 3 4 5 6 7 8 9 10 11 12 13 14 15 16 17 18 19 20 21 22 23 24 25 26 27 28
000
FTUS45 KREV 232321
TAFTVL
TAF
KTVL 232321Z 2400/2424 19008G16KT P6SM SCT180
     FM240200 19003KT P6SM SCT080 BKN140
     FM241400 19011G20KT P6SM SCT050 BKN100
     FM241900 20018G30KT 6SM -SHRASN SCT025 BKN035 OVC050=

USA.gov is the U.S. government's official web portal to all federal, state and local government web resources and services.